sensor_id;sensor_type;location;lat;lon;timestamp;P1;durP1;ratioP1;P2;durP2;ratioP2
22046;SDS011;11187;49.412;20.956;2023-05-14T00:02:25;15.55;;;14.25;;
22046;SDS011;11187;49.412;20.956;2023-05-14T00:05:19;14.75;;;13.45;;
22046;SDS011;11187;49.412;20.956;2023-05-14T00:08:13;15.25;;;13.82;;
22046;SDS011;11187;49.412;20.956;2023-05-14T00:11:07;15.77;;;14.45;;
22046;SDS011;11187;49.412;20.956;2023-05-14T00:14:01;14.68;;;13.48;;
22046;SDS011;11187;49.412;20.956;2023-05-14T00:16:35;14.90;;;13.60;;
22046;SDS011;11187;49.412;20.956;2023-05-14T00:19:28;15.65;;;13.98;;
22046;SDS011;11187;49.412;20.956;2023-05-14T00:22:23;14.88;;;13.57;;
22046;SDS011;11187;49.412;20.956;2023-05-14T00:24:56;15.43;;;14.00;;
22046;SDS011;11187;49.412;20.956;2023-05-14T00:27:42;16.92;;;15.43;;
22046;SDS011;11187;49.412;20.956;2023-05-14T00:30:16;16.10;;;14.63;;
22046;SDS011;11187;49.412;20.956;2023-05-14T00:33:09;15.70;;;14.23;;
22046;SDS011;11187;49.412;20.956;2023-05-14T00:36:04;15.60;;;14.25;;
22046;SDS011;11187;49.412;20.956;2023-05-14T00:38:57;15.75;;;14.23;;
22046;SDS011;11187;49.412;20.956;2023-05-14T00:41:31;15.38;;;13.95;;
22046;SDS011;11187;49.412;20.956;2023-05-14T00:44:24;15.45;;;14.15;;
22046;SDS011;11187;49.412;20.956;2023-05-14T00:47:01;15.60;;;14.30;;
22046;SDS011;11187;49.412;20.956;2023-05-14T00:49:48;16.83;;;15.38;;
22046;SDS011;11187;49.412;20.956;2023-05-14T00:52:22;16.42;;;14.88;;
22046;SDS011;11187;49.412;20.956;2023-05-14T00:55:10;18.13;;;15.85;;
22046;SDS011;11187;49.412;20.956;2023-05-14T00:57:50;17.40;;;15.65;;
22046;SDS011;11187;49.412;20.956;2023-05-14T01:00:40;16.48;;;14.88;;
22046;SDS011;11187;49.412;20.956;2023-05-14T01:03:14;18.67;;;17.23;;
22046;SDS011;11187;49.412;20.956;2023-05-14T01:06:17;19.02;;;17.13;;
22046;SDS011;11187;49.412;20.956;2023-05-14T01:09:00;18.15;;;16.45;;
22046;SDS011;11187;49.412;20.956;2023-05-14T01:15:30;16.55;;;15.05;;
22046;SDS011;11187;49.412;20.956;2023-05-14T01:18:09;17.48;;;15.93;;
22046;SDS011;11187;49.412;20.956;2023-05-14T01:20:58;17.70;;;16.00;;
22046;SDS011;11187;49.412;20.956;2023-05-14T01:23:33;16.67;;;15.18;;
22046;SDS011;11187;49.412;20.956;2023-05-14T01:26:19;17.42;;;15.88;;
22046;SDS011;11187;49.412;20.956;2023-05-14T01:28:53;19.20;;;17.23;;
22046;SDS011;11187;49.412;20.956;2023-05-14T01:31:50;18.95;;;17.15;;
22046;SDS011;11187;49.412;20.956;2023-05-14T01:34:27;18.85;;;17.10;;
22046;SDS011;11187;49.412;20.956;2023-05-14T01:37:16;18.60;;;16.45;;
22046;SDS011;11187;49.412;20.956;2023-05-14T01:39:49;16.00;;;14.50;;
22046;SDS011;11187;49.412;20.956;2023-05-14T01:42:38;17.27;;;15.77;;
22046;SDS011;11187;49.412;20.956;2023-05-14T01:45:11;18.98;;;17.17;;
22046;SDS011;11187;49.412;20.956;2023-05-14T01:48:05;17.42;;;16.05;;
22046;SDS011;11187;49.412;20.956;2023-05-14T01:50:59;18.70;;;17.00;;
22046;SDS011;11187;49.412;20.956;2023-05-14T01:53:32;25.60;;;18.33;;
22046;SDS011;11187;49.412;20.956;2023-05-14T01:56:19;29.45;;;20.05;;
22046;SDS011;11187;49.412;20.956;2023-05-14T01:58:55;33.75;;;20.65;;
22046;SDS011;11187;49.412;20.956;2023-05-14T02:01:48;29.55;;;20.80;;
22046;SDS011;11187;49.412;20.956;2023-05-14T02:04:43;33.78;;;22.38;;
22046;SDS011;11187;49.412;20.956;2023-05-14T02:07:16;31.55;;;19.48;;
22046;SDS011;11187;49.412;20.956;2023-05-14T02:10:03;27.15;;;21.17;;
22046;SDS011;11187;49.412;20.956;2023-05-14T02:12:37;22.73;;;20.25;;
22046;SDS011;11187;49.412;20.956;2023-05-14T02:15:24;24.45;;;20.08;;
22046;SDS011;11187;49.412;20.956;2023-05-14T02:17:57;26.02;;;19.48;;
22046;SDS011;11187;49.412;20.956;2023-05-14T02:20:43;22.67;;;18.63;;
22046;SDS011;11187;49.412;20.956;2023-05-14T02:23:18;22.08;;;17.42;;
22046;SDS011;11187;49.412;20.956;2023-05-14T02:26:21;20.70;;;17.77;;
22046;SDS011;11187;49.412;20.956;2023-05-14T02:29:15;18.20;;;16.55;;
22046;SDS011;11187;49.412;20.956;2023-05-14T02:31:48;17.17;;;15.73;;
22046;SDS011;11187;49.412;20.956;2023-05-14T02:34:35;17.30;;;15.65;;
22046;SDS011;11187;49.412;20.956;2023-05-14T02:37:29;18.42;;;16.88;;
22046;SDS011;11187;49.412;20.956;2023-05-14T02:40:23;17.20;;;15.70;;
22046;SDS011;11187;49.412;20.956;2023-05-14T02:42:57;15.27;;;13.80;;
22046;SDS011;11187;49.412;20.956;2023-05-14T02:45:52;16.88;;;15.23;;
22046;SDS011;11187;49.412;20.956;2023-05-14T02:48:46;15.55;;;14.15;;
22046;SDS011;11187;49.412;20.956;2023-05-14T02:51:19;15.93;;;14.65;;
22046;SDS011;11187;49.412;20.956;2023-05-14T02:54:06;15.93;;;14.63;;
22046;SDS011;11187;49.412;20.956;2023-05-14T02:56:39;17.15;;;15.57;;
22046;SDS011;11187;49.412;20.956;2023-05-14T02:59:33;16.48;;;14.95;;
22046;SDS011;11187;49.412;20.956;2023-05-14T03:02:27;16.05;;;14.45;;
22046;SDS011;11187;49.412;20.956;2023-05-14T03:05:00;15.18;;;13.80;;
22046;SDS011;11187;49.412;20.956;2023-05-14T03:07:49;17.05;;;13.90;;
22046;SDS011;11187;49.412;20.956;2023-05-14T03:10:23;15.27;;;13.68;;
22046;SDS011;11187;49.412;20.956;2023-05-14T03:13:18;14.20;;;12.90;;
22046;SDS011;11187;49.412;20.956;2023-05-14T03:16:12;16.33;;;14.65;;
22046;SDS011;11187;49.412;20.956;2023-05-14T03:19:06;16.15;;;14.65;;
22046;SDS011;11187;49.412;20.956;2023-05-14T03:22:00;15.60;;;14.13;;
22046;SDS011;11187;49.412;20.956;2023-05-14T03:24:54;15.60;;;14.13;;
22046;SDS011;11187;49.412;20.956;2023-05-14T03:27:27;15.68;;;14.50;;
22046;SDS011;11187;49.412;20.956;2023-05-14T03:30:14;15.25;;;13.95;;
22046;SDS011;11187;49.412;20.956;2023-05-14T03:32:47;15.00;;;13.90;;
22046;SDS011;11187;49.412;20.956;2023-05-14T03:35:35;15.82;;;14.57;;
22046;SDS011;11187;49.412;20.956;2023-05-14T03:38:08;15.55;;;14.18;;
22046;SDS011;11187;49.412;20.956;2023-05-14T03:41:02;16.17;;;14.88;;
22046;SDS011;11187;49.412;20.956;2023-05-14T03:43:56;15.70;;;14.43;;
22046;SDS011;11187;49.412;20.956;2023-05-14T03:46:29;16.75;;;15.35;;
22046;SDS011;11187;49.412;20.956;2023-05-14T03:49:16;16.52;;;15.30;;
22046;SDS011;11187;49.412;20.956;2023-05-14T03:51:49;17.02;;;15.63;;
22046;SDS011;11187;49.412;20.956;2023-05-14T03:54:38;15.98;;;14.77;;
22046;SDS011;11187;49.412;20.956;2023-05-14T03:57:13;16.50;;;15.00;;
22046;SDS011;11187;49.412;20.956;2023-05-14T04:00:07;16.92;;;15.52;;
22046;SDS011;11187;49.412;20.956;2023-05-14T04:03:01;18.27;;;16.50;;
22046;SDS011;11187;49.412;20.956;2023-05-14T04:05:34;18.02;;;16.30;;
22046;SDS011;11187;49.412;20.956;2023-05-14T04:08:21;17.02;;;15.63;;
22046;SDS011;11187;49.412;20.956;2023-05-14T04:10:54;17.35;;;15.85;;
22046;SDS011;11187;49.412;20.956;2023-05-14T04:13:48;16.40;;;15.10;;
22046;SDS011;11187;49.412;20.956;2023-05-14T04:16:42;16.27;;;14.90;;
22046;SDS011;11187;49.412;20.956;2023-05-14T04:19:15;16.13;;;14.85;;
22046;SDS011;11187;49.412;20.956;2023-05-14T04:22:02;16.95;;;15.43;;
22046;SDS011;11187;49.412;20.956;2023-05-14T04:24:35;17.90;;;16.40;;
22046;SDS011;11187;49.412;20.956;2023-05-14T04:27:22;15.95;;;14.55;;
22046;SDS011;11187;49.412;20.956;2023-05-14T04:29:55;16.77;;;15.48;;
22046;SDS011;11187;49.412;20.956;2023-05-14T04:32:49;16.75;;;15.35;;
22046;SDS011;11187;49.412;20.956;2023-05-14T04:35:23;17.00;;;15.45;;
22046;SDS011;11187;49.412;20.956;2023-05-14T04:38:10;16.35;;;15.07;;
22046;SDS011;11187;49.412;20.956;2023-05-14T04:40:43;17.23;;;15.82;;
22046;SDS011;11187;49.412;20.956;2023-05-14T04:43:37;16.80;;;15.45;;
22046;SDS011;11187;49.412;20.956;2023-05-14T04:46:32;16.23;;;14.93;;
22046;SDS011;11187;49.412;20.956;2023-05-14T04:49:05;16.65;;;15.23;;
22046;SDS011;11187;49.412;20.956;2023-05-14T04:51:52;16.73;;;15.27;;
22046;SDS011;11187;49.412;20.956;2023-05-14T04:54:25;16.10;;;14.85;;
22046;SDS011;11187;49.412;20.956;2023-05-14T04:57:19;16.42;;;14.85;;
22046;SDS011;11187;49.412;20.956;2023-05-14T04:59:52;16.00;;;14.70;;
22046;SDS011;11187;49.412;20.956;2023-05-14T05:02:46;16.67;;;15.27;;
22046;SDS011;11187;49.412;20.956;2023-05-14T05:05:40;16.27;;;14.88;;
22046;SDS011;11187;49.412;20.956;2023-05-14T05:08:13;15.25;;;13.93;;
22046;SDS011;11187;49.412;20.956;2023-05-14T05:11:00;14.75;;;13.45;;
22046;SDS011;11187;49.412;20.956;2023-05-14T05:13:33;14.77;;;13.65;;
22046;SDS011;11187;49.412;20.956;2023-05-14T05:16:27;16.08;;;14.73;;
22046;SDS011;11187;49.412;20.956;2023-05-14T05:19:00;15.68;;;14.43;;
22046;SDS011;11187;49.412;20.956;2023-05-14T05:21:54;16.20;;;14.95;;
22046;SDS011;11187;49.412;20.956;2023-05-14T05:24:30;17.50;;;16.10;;
22046;SDS011;11187;49.412;20.956;2023-05-14T05:27:24;16.15;;;14.75;;
22046;SDS011;11187;49.412;20.956;2023-05-14T05:29:57;17.60;;;15.77;;
22046;SDS011;11187;49.412;20.956;2023-05-14T05:32:45;16.40;;;15.10;;
22046;SDS011;11187;49.412;20.956;2023-05-14T05:35:18;16.85;;;15.35;;
22046;SDS011;11187;49.412;20.956;2023-05-14T05:38:05;19.80;;;14.90;;
22046;SDS011;11187;49.412;20.956;2023-05-14T05:40:39;17.25;;;15.95;;
22046;SDS011;11187;49.412;20.956;2023-05-14T05:43:27;15.95;;;14.75;;
22046;SDS011;11187;49.412;20.956;2023-05-14T05:46:00;15.13;;;13.75;;
22046;SDS011;11187;49.412;20.956;2023-05-14T05:48:47;15.68;;;14.43;;
22046;SDS011;11187;49.412;20.956;2023-05-14T05:51:20;14.95;;;13.75;;
22046;SDS011;11187;49.412;20.956;2023-05-14T05:54:07;14.27;;;12.90;;
22046;SDS011;11187;49.412;20.956;2023-05-14T05:56:40;16.70;;;15.20;;
22046;SDS011;11187;49.412;20.956;2023-05-14T05:59:27;16.80;;;15.25;;
22046;SDS011;11187;49.412;20.956;2023-05-14T06:02:00;17.98;;;16.10;;
22046;SDS011;11187;49.412;20.956;2023-05-14T06:04:47;17.00;;;15.60;;
22046;SDS011;11187;49.412;20.956;2023-05-14T06:07:20;17.52;;;16.13;;
22046;SDS011;11187;49.412;20.956;2023-05-14T06:10:07;17.30;;;15.68;;
22046;SDS011;11187;49.412;20.956;2023-05-14T06:12:40;17.90;;;16.27;;
22046;SDS011;11187;49.412;20.956;2023-05-14T06:15:27;14.13;;;12.82;;
22046;SDS011;11187;49.412;20.956;2023-05-14T06:18:00;16.50;;;15.07;;
22046;SDS011;11187;49.412;20.956;2023-05-14T06:20:47;24.20;;;15.07;;
22046;SDS011;11187;49.412;20.956;2023-05-14T06:23:20;17.27;;;15.60;;
22046;SDS011;11187;49.412;20.956;2023-05-14T06:26:07;16.00;;;14.70;;
22046;SDS011;11187;49.412;20.956;2023-05-14T06:28:40;16.23;;;14.93;;
22046;SDS011;11187;49.412;20.956;2023-05-14T06:31:34;19.52;;;15.20;;
22046;SDS011;11187;49.412;20.956;2023-05-14T06:34:07;15.80;;;14.38;;
22046;SDS011;11187;49.412;20.956;2023-05-14T06:37:01;15.73;;;14.40;;
22046;SDS011;11187;49.412;20.956;2023-05-14T06:39:55;15.95;;;14.55;;
22046;SDS011;11187;49.412;20.956;2023-05-14T06:42:28;17.00;;;15.48;;
22046;SDS011;11187;49.412;20.956;2023-05-14T06:45:15;17.38;;;15.77;;
22046;SDS011;11187;49.412;20.956;2023-05-14T06:47:48;16.20;;;14.80;;
22046;SDS011;11187;49.412;20.956;2023-05-14T06:50:42;16.98;;;15.32;;
22046;SDS011;11187;49.412;20.956;2023-05-14T06:53:36;16.23;;;14.70;;
22046;SDS011;11187;49.412;20.956;2023-05-14T06:56:09;16.33;;;15.05;;
22046;SDS011;11187;49.412;20.956;2023-05-14T06:58:49;16.92;;;15.50;;
22046;SDS011;11187;49.412;20.956;2023-05-14T07:01:29;15.95;;;14.55;;
22046;SDS011;11187;49.412;20.956;2023-05-14T07:04:09;16.52;;;15.13;;
22046;SDS011;11187;49.412;20.956;2023-05-14T07:06:49;15.73;;;13.70;;
22046;SDS011;11187;49.412;20.956;2023-05-14T07:09:29;17.08;;;15.68;;
22046;SDS011;11187;49.412;20.956;2023-05-14T07:12:09;17.08;;;15.88;;
22046;SDS011;11187;49.412;20.956;2023-05-14T07:14:49;16.15;;;15.05;;
22046;SDS011;11187;49.412;20.956;2023-05-14T07:17:30;13.40;;;12.50;;
22046;SDS011;11187;49.412;20.956;2023-05-14T07:20:03;13.40;;;12.40;;
22046;SDS011;11187;49.412;20.956;2023-05-14T07:22:51;13.70;;;12.60;;
22046;SDS011;11187;49.412;20.956;2023-05-14T07:25:24;13.90;;;12.60;;
22046;SDS011;11187;49.412;20.956;2023-05-14T07:28:11;17.73;;;12.27;;
22046;SDS011;11187;49.412;20.956;2023-05-14T07:30:44;12.98;;;11.85;;
22046;SDS011;11187;49.412;20.956;2023-05-14T07:33:31;13.25;;;12.25;;
22046;SDS011;11187;49.412;20.956;2023-05-14T07:36:04;13.70;;;12.57;;
22046;SDS011;11187;49.412;20.956;2023-05-14T07:38:59;13.75;;;12.55;;
22046;SDS011;11187;49.412;20.956;2023-05-14T07:41:32;12.90;;;11.85;;
22046;SDS011;11187;49.412;20.956;2023-05-14T07:44:19;13.60;;;12.50;;
22046;SDS011;11187;49.412;20.956;2023-05-14T07:46:53;13.27;;;12.18;;
22046;SDS011;11187;49.412;20.956;2023-05-14T07:49:40;14.48;;;13.45;;
22046;SDS011;11187;49.412;20.956;2023-05-14T07:52:13;13.63;;;12.63;;
22046;SDS011;11187;49.412;20.956;2023-05-14T07:55:01;13.23;;;12.23;;
22046;SDS011;11187;49.412;20.956;2023-05-14T07:57:35;13.70;;;12.07;;
22046;SDS011;11187;49.412;20.956;2023-05-14T08:00:22;12.20;;;11.38;;
22046;SDS011;11187;49.412;20.956;2023-05-14T08:02:55;12.15;;;11.25;;
22046;SDS011;11187;49.412;20.956;2023-05-14T08:05:43;13.63;;;11.70;;
22046;SDS011;11187;49.412;20.956;2023-05-14T08:08:16;12.38;;;11.15;;
22046;SDS011;11187;49.412;20.956;2023-05-14T08:11:03;13.02;;;11.82;;
22046;SDS011;11187;49.412;20.956;2023-05-14T08:13:36;12.52;;;11.63;;
22046;SDS011;11187;49.412;20.956;2023-05-14T08:16:23;12.18;;;11.15;;
22046;SDS011;11187;49.412;20.956;2023-05-14T08:18:57;12.75;;;11.60;;
22046;SDS011;11187;49.412;20.956;2023-05-14T08:21:51;13.30;;;11.93;;
22046;SDS011;11187;49.412;20.956;2023-05-14T08:24:45;12.50;;;11.65;;
22046;SDS011;11187;49.412;20.956;2023-05-14T08:27:18;13.10;;;12.00;;
22046;SDS011;11187;49.412;20.956;2023-05-14T08:30:05;12.95;;;11.85;;
22046;SDS011;11187;49.412;20.956;2023-05-14T08:32:39;12.07;;;11.27;;
22046;SDS011;11187;49.412;20.956;2023-05-14T08:35:26;13.00;;;12.10;;
22046;SDS011;11187;49.412;20.956;2023-05-14T08:38:20;12.48;;;11.57;;
22046;SDS011;11187;49.412;20.956;2023-05-14T08:41:14;13.13;;;12.23;;
22046;SDS011;11187;49.412;20.956;2023-05-14T08:47:20;13.38;;;12.23;;
22046;SDS011;11187;49.412;20.956;2023-05-14T08:49:55;13.30;;;12.20;;
22046;SDS011;11187;49.412;20.956;2023-05-14T08:52:43;37.65;;;13.05;;
22046;SDS011;11187;49.412;20.956;2023-05-14T08:55:17;13.75;;;12.57;;
22046;SDS011;11187;49.412;20.956;2023-05-14T08:58:05;13.43;;;12.48;;
22046;SDS011;11187;49.412;20.956;2023-05-14T09:00:38;13.57;;;12.68;;
22046;SDS011;11187;49.412;20.956;2023-05-14T09:03:32;12.82;;;11.93;;
22046;SDS011;11187;49.412;20.956;2023-05-14T09:06:27;13.88;;;12.63;;
22046;SDS011;11187;49.412;20.956;2023-05-14T09:09:21;13.30;;;12.10;;
22046;SDS011;11187;49.412;20.956;2023-05-14T09:11:55;13.07;;;12.02;;
22046;SDS011;11187;49.412;20.956;2023-05-14T09:14:49;13.00;;;11.80;;
22046;SDS011;11187;49.412;20.956;2023-05-14T09:17:43;14.25;;;12.95;;
22046;SDS011;11187;49.412;20.956;2023-05-14T09:20:19;12.75;;;11.77;;
22046;SDS011;11187;49.412;20.956;2023-05-14T09:23:07;13.75;;;12.73;;
22046;SDS011;11187;49.412;20.956;2023-05-14T09:25:40;14.75;;;13.55;;
22046;SDS011;11187;49.412;20.956;2023-05-14T09:28:28;14.40;;;13.25;;
22046;SDS011;11187;49.412;20.956;2023-05-14T09:31:02;13.38;;;12.35;;
22046;SDS011;11187;49.412;20.956;2023-05-14T09:33:49;12.77;;;11.85;;
22046;SDS011;11187;49.412;20.956;2023-05-14T09:36:23;12.70;;;11.65;;
22046;SDS011;11187;49.412;20.956;2023-05-14T09:39:18;11.65;;;10.85;;
22046;SDS011;11187;49.412;20.956;2023-05-14T09:42:12;13.55;;;12.65;;
22046;SDS011;11187;49.412;20.956;2023-05-14T09:44:45;14.13;;;12.73;;
22046;SDS011;11187;49.412;20.956;2023-05-14T09:47:32;13.07;;;12.10;;
22046;SDS011;11187;49.412;20.956;2023-05-14T09:50:06;12.35;;;11.35;;
22046;SDS011;11187;49.412;20.956;2023-05-14T09:52:54;12.25;;;11.00;;
22046;SDS011;11187;49.412;20.956;2023-05-14T09:55:27;12.98;;;12.07;;
22046;SDS011;11187;49.412;20.956;2023-05-14T09:58:15;12.02;;;11.00;;
22046;SDS011;11187;49.412;20.956;2023-05-14T10:00:48;12.02;;;11.02;;
22046;SDS011;11187;49.412;20.956;2023-05-14T10:03:37;12.48;;;11.68;;
22046;SDS011;11187;49.412;20.956;2023-05-14T10:06:10;12.65;;;11.75;;
22046;SDS011;11187;49.412;20.956;2023-05-14T10:09:09;13.70;;;12.68;;
22046;SDS011;11187;49.412;20.956;2023-05-14T10:11:44;12.80;;;11.85;;
22046;SDS011;11187;49.412;20.956;2023-05-14T10:14:37;12.65;;;11.60;;
22046;SDS011;11187;49.412;20.956;2023-05-14T10:17:12;12.38;;;11.57;;
22046;SDS011;11187;49.412;20.956;2023-05-14T10:19:59;12.07;;;11.18;;
22046;SDS011;11187;49.412;20.956;2023-05-14T10:22:34;12.73;;;11.73;;
22046;SDS011;11187;49.412;20.956;2023-05-14T10:25:21;11.25;;;10.52;;
22046;SDS011;11187;49.412;20.956;2023-05-14T10:27:55;11.50;;;10.70;;
22046;SDS011;11187;49.412;20.956;2023-05-14T10:30:43;11.48;;;10.48;;
22046;SDS011;11187;49.412;20.956;2023-05-14T10:33:17;11.52;;;10.55;;
22046;SDS011;11187;49.412;20.956;2023-05-14T10:36:04;11.77;;;10.80;;
22046;SDS011;11187;49.412;20.956;2023-05-14T10:38:39;11.57;;;10.65;;
22046;SDS011;11187;49.412;20.956;2023-05-14T10:41:26;10.80;;;10.00;;
22046;SDS011;11187;49.412;20.956;2023-05-14T10:43:59;11.57;;;10.45;;
22046;SDS011;11187;49.412;20.956;2023-05-14T10:46:54;11.25;;;10.38;;
22046;SDS011;11187;49.412;20.956;2023-05-14T10:49:28;10.52;;;9.82;;
22046;SDS011;11187;49.412;20.956;2023-05-14T10:52:22;11.57;;;10.77;;
22046;SDS011;11187;49.412;20.956;2023-05-14T10:54:57;12.15;;;11.20;;
22046;SDS011;11187;49.412;20.956;2023-05-14T10:57:49;11.18;;;10.30;;
22046;SDS011;11187;49.412;20.956;2023-05-14T11:00:24;10.80;;;10.00;;
22046;SDS011;11187;49.412;20.956;2023-05-14T11:03:19;10.63;;;9.82;;
22046;SDS011;11187;49.412;20.956;2023-05-14T11:05:59;11.43;;;10.52;;
22046;SDS011;11187;49.412;20.956;2023-05-14T11:08:49;13.35;;;12.02;;
22046;SDS011;11187;49.412;20.956;2023-05-14T11:11:22;11.75;;;10.75;;
22046;SDS011;11187;49.412;20.956;2023-05-14T11:14:09;11.82;;;10.93;;
22046;SDS011;11187;49.412;20.956;2023-05-14T11:16:42;16.80;;;15.30;;
22046;SDS011;11187;49.412;20.956;2023-05-14T11:19:29;16.90;;;15.80;;
22046;SDS011;11187;49.412;20.956;2023-05-14T11:22:02;13.93;;;12.98;;
22046;SDS011;11187;49.412;20.956;2023-05-14T11:24:52;15.57;;;14.27;;
22046;SDS011;11187;49.412;20.956;2023-05-14T11:27:25;14.90;;;13.95;;
22046;SDS011;11187;49.412;20.956;2023-05-14T11:30:15;14.63;;;13.63;;
22046;SDS011;11187;49.412;20.956;2023-05-14T11:32:51;15.90;;;14.80;;
22046;SDS011;11187;49.412;20.956;2023-05-14T11:35:40;15.82;;;14.63;;
22046;SDS011;11187;49.412;20.956;2023-05-14T11:38:18;16.60;;;15.32;;
22046;SDS011;11187;49.412;20.956;2023-05-14T11:41:06;16.33;;;15.23;;
22046;SDS011;11187;49.412;20.956;2023-05-14T11:43:39;16.95;;;15.85;;
22046;SDS011;11187;49.412;20.956;2023-05-14T11:46:27;16.95;;;15.48;;
22046;SDS011;11187;49.412;20.956;2023-05-14T11:49:03;16.42;;;15.13;;
22046;SDS011;11187;49.412;20.956;2023-05-14T11:51:59;16.13;;;15.02;;
22046;SDS011;11187;49.412;20.956;2023-05-14T11:54:34;16.50;;;15.50;;
22046;SDS011;11187;49.412;20.956;2023-05-14T11:57:21;16.77;;;15.30;;
22046;SDS011;11187;49.412;20.956;2023-05-14T11:59:54;18.20;;;16.88;;
22046;SDS011;11187;49.412;20.956;2023-05-14T12:02:43;19.25;;;15.73;;
22046;SDS011;11187;49.412;20.956;2023-05-14T12:05:17;16.98;;;15.68;;
22046;SDS011;11187;49.412;20.956;2023-05-14T12:08:20;17.08;;;15.27;;
22046;SDS011;11187;49.412;20.956;2023-05-14T12:11:02;17.60;;;15.18;;
22046;SDS011;11187;49.412;20.956;2023-05-14T12:13:49;16.67;;;14.15;;
22046;SDS011;11187;49.412;20.956;2023-05-14T12:16:22;15.35;;;14.02;;
22046;SDS011;11187;49.412;20.956;2023-05-14T12:19:09;13.63;;;12.63;;
22046;SDS011;11187;49.412;20.956;2023-05-14T12:21:46;16.83;;;12.68;;
22046;SDS011;11187;49.412;20.956;2023-05-14T12:24:34;17.02;;;12.40;;
22046;SDS011;11187;49.412;20.956;2023-05-14T12:27:08;12.23;;;11.48;;
22046;SDS011;11187;49.412;20.956;2023-05-14T12:29:59;12.82;;;11.70;;
22046;SDS011;11187;49.412;20.956;2023-05-14T12:32:37;13.27;;;12.40;;
22046;SDS011;11187;49.412;20.956;2023-05-14T12:35:25;15.00;;;13.80;;
22046;SDS011;11187;49.412;20.956;2023-05-14T12:37:58;14.65;;;13.57;;
22046;SDS011;11187;49.412;20.956;2023-05-14T12:40:45;13.82;;;12.88;;
22046;SDS011;11187;49.412;20.956;2023-05-14T12:43:18;12.95;;;11.88;;
22046;SDS011;11187;49.412;20.956;2023-05-14T12:46:17;10.82;;;9.93;;
22046;SDS011;11187;49.412;20.956;2023-05-14T12:48:53;15.30;;;13.88;;
22046;SDS011;11187;49.412;20.956;2023-05-14T12:51:40;14.15;;;13.25;;
22046;SDS011;11187;49.412;20.956;2023-05-14T12:54:13;14.85;;;13.75;;
22046;SDS011;11187;49.412;20.956;2023-05-14T12:57:03;16.17;;;15.07;;
22046;SDS011;11187;49.412;20.956;2023-05-14T12:59:36;13.10;;;12.05;;
22046;SDS011;11187;49.412;20.956;2023-05-14T13:02:30;11.57;;;10.77;;
22046;SDS011;11187;49.412;20.956;2023-05-14T13:05:24;12.38;;;11.43;;
22046;SDS011;11187;49.412;20.956;2023-05-14T13:07:58;13.13;;;12.13;;
22046;SDS011;11187;49.412;20.956;2023-05-14T13:10:53;12.38;;;11.50;;
22046;SDS011;11187;49.412;20.956;2023-05-14T13:13:27;13.90;;;10.50;;
22046;SDS011;11187;49.412;20.956;2023-05-14T13:16:24;12.30;;;11.50;;
22046;SDS011;11187;49.412;20.956;2023-05-14T13:18:59;11.52;;;10.50;;
22046;SDS011;11187;49.412;20.956;2023-05-14T13:21:46;11.77;;;10.88;;
22046;SDS011;11187;49.412;20.956;2023-05-14T13:24:27;11.48;;;10.63;;
22046;SDS011;11187;49.412;20.956;2023-05-14T13:27:14;12.02;;;11.20;;
22046;SDS011;11187;49.412;20.956;2023-05-14T13:29:47;11.68;;;10.80;;
22046;SDS011;11187;49.412;20.956;2023-05-14T13:32:41;12.35;;;11.15;;
22046;SDS011;11187;49.412;20.956;2023-05-14T13:35:35;11.02;;;10.23;;
22046;SDS011;11187;49.412;20.956;2023-05-14T13:38:29;11.55;;;10.75;;
22046;SDS011;11187;49.412;20.956;2023-05-14T13:41:24;10.13;;;9.43;;
22046;SDS011;11187;49.412;20.956;2023-05-14T13:43:57;10.93;;;10.23;;
22046;SDS011;11187;49.412;20.956;2023-05-14T13:46:44;11.70;;;10.77;;
22046;SDS011;11187;49.412;20.956;2023-05-14T13:49:19;11.25;;;10.55;;
22046;SDS011;11187;49.412;20.956;2023-05-14T13:52:06;10.35;;;9.45;;
22046;SDS011;11187;49.412;20.956;2023-05-14T13:54:39;11.27;;;10.57;;
22046;SDS011;11187;49.412;20.956;2023-05-14T13:57:33;10.63;;;9.93;;
22046;SDS011;11187;49.412;20.956;2023-05-14T14:00:28;10.80;;;10.00;;
22046;SDS011;11187;49.412;20.956;2023-05-14T14:03:01;10.82;;;9.90;;
22046;SDS011;11187;49.412;20.956;2023-05-14T14:05:48;11.50;;;10.40;;
22046;SDS011;11187;49.412;20.956;2023-05-14T14:08:21;12.10;;;11.07;;
22046;SDS011;11187;49.412;20.956;2023-05-14T14:11:16;11.10;;;10.40;;
22046;SDS011;11187;49.412;20.956;2023-05-14T14:14:10;11.90;;;11.00;;
22046;SDS011;11187;49.412;20.956;2023-05-14T14:16:44;12.02;;;10.90;;
22046;SDS011;11187;49.412;20.956;2023-05-14T14:19:31;11.63;;;10.73;;
22046;SDS011;11187;49.412;20.956;2023-05-14T14:22:04;11.55;;;10.73;;
22046;SDS011;11187;49.412;20.956;2023-05-14T14:25:07;11.07;;;10.27;;
22046;SDS011;11187;49.412;20.956;2023-05-14T14:28:01;10.88;;;10.18;;
22046;SDS011;11187;49.412;20.956;2023-05-14T14:30:55;11.35;;;10.30;;
22046;SDS011;11187;49.412;20.956;2023-05-14T14:33:28;10.82;;;9.98;;
22046;SDS011;11187;49.412;20.956;2023-05-14T14:36:22;11.98;;;10.77;;
22046;SDS011;11187;49.412;20.956;2023-05-14T14:39:17;10.90;;;10.00;;
22046;SDS011;11187;49.412;20.956;2023-05-14T14:41:50;11.38;;;10.48;;
22046;SDS011;11187;49.412;20.956;2023-05-14T14:44:37;11.07;;;10.27;;
22046;SDS011;11187;49.412;20.956;2023-05-14T14:47:10;11.48;;;10.57;;
22046;SDS011;11187;49.412;20.956;2023-05-14T14:49:57;10.73;;;9.93;;
22046;SDS011;11187;49.412;20.956;2023-05-14T14:52:30;11.80;;;10.77;;
22046;SDS011;11187;49.412;20.956;2023-05-14T14:55:24;12.98;;;11.75;;
22046;SDS011;11187;49.412;20.956;2023-05-14T14:58:18;10.82;;;9.93;;
22046;SDS011;11187;49.412;20.956;2023-05-14T15:00:54;11.93;;;10.82;;
22046;SDS011;11187;49.412;20.956;2023-05-14T15:03:42;11.82;;;10.80;;
22046;SDS011;11187;49.412;20.956;2023-05-14T15:06:18;11.25;;;10.35;;
22046;SDS011;11187;49.412;20.956;2023-05-14T15:09:11;11.38;;;10.23;;
22046;SDS011;11187;49.412;20.956;2023-05-14T15:12:05;12.57;;;10.80;;
22046;SDS011;11187;49.412;20.956;2023-05-14T15:14:40;11.10;;;10.30;;
22046;SDS011;11187;49.412;20.956;2023-05-14T15:17:27;11.23;;;10.48;;
22046;SDS011;11187;49.412;20.956;2023-05-14T15:20:00;11.55;;;10.68;;
22046;SDS011;11187;49.412;20.956;2023-05-14T15:22:47;9.88;;;9.07;;
22046;SDS011;11187;49.412;20.956;2023-05-14T15:25:24;10.90;;;10.10;;
22046;SDS011;11187;49.412;20.956;2023-05-14T15:28:19;11.63;;;10.82;;
22046;SDS011;11187;49.412;20.956;2023-05-14T15:31:15;9.85;;;9.07;;
22046;SDS011;11187;49.412;20.956;2023-05-14T15:34:09;10.70;;;9.90;;
22046;SDS011;11187;49.412;20.956;2023-05-14T15:36:43;11.32;;;10.43;;
22046;SDS011;11187;49.412;20.956;2023-05-14T15:39:37;10.73;;;9.73;;
22046;SDS011;11187;49.412;20.956;2023-05-14T15:42:11;11.40;;;10.40;;
22046;SDS011;11187;49.412;20.956;2023-05-14T15:44:58;10.63;;;9.63;;
22046;SDS011;11187;49.412;20.956;2023-05-14T15:47:31;11.68;;;10.77;;
22046;SDS011;11187;49.412;20.956;2023-05-14T15:50:27;11.27;;;10.27;;